Time;durP1;ratioP1;P1;durP2;ratioP2;P2;SDS_P1;SDS_P2;PMS_P1;PMS_P2;Temp;Humidity;BMP_temperature;BMP_pressure;BME280_temperature;BME280_humidity;BME280_pressure;Samples;Min_cycle;Max_cycle;Signal;HPM_P1;HPM_P2
2021/09/01 00:00:06;;;;;;;58.40;2.80;;;11.50;63.70;;;;;;5080032;28;20546;-72
2021/09/01 00:02:34;;;;;;;58.33;2.70;;;11.50;63.20;;;;;;5079819;28;20530;-72
2021/09/01 00:05:01;;;;;;;58.17;2.83;;;11.50;63.30;;;;;;5079896;28;20467;-71
2021/09/01 00:07:28;;;;;;;58.37;3.10;;;11.50;64.30;;;;;;5079932;28;20479;-72
2021/09/01 00:09:55;;;;;;;58.53;3.00;;;11.40;63.80;;;;;;5079275;28;20874;-72
2021/09/01 00:12:21;;;;;;;58.37;2.80;;;11.40;64.40;;;;;;5079382;28;20523;-72
2021/09/01 00:14:48;;;;;;;59.27;3.57;;;11.40;64.20;;;;;;5080410;28;20530;-72
2021/09/01 00:17:15;;;;;;;58.17;2.60;;;11.40;65.00;;;;;;5078978;28;20463;-72
2021/09/01 00:19:43;;;;;;;58.13;2.70;;;11.40;65.00;;;;;;5079765;28;20481;-72
2021/09/01 00:22:10;;;;;;;58.33;2.70;;;11.30;65.20;;;;;;5080165;28;20527;-72
2021/09/01 00:24:37;;;;;;;58.40;2.63;;;11.30;65.20;;;;;;5079721;28;20454;-73
2021/09/01 00:27:04;;;;;;;58.37;2.80;;;11.30;65.50;;;;;;5079658;28;20574;-72
2021/09/01 00:29:31;;;;;;;58.07;2.67;;;11.30;66.40;;;;;;5079613;28;20549;-72
2021/09/01 00:31:58;;;;;;;58.60;2.80;;;11.30;66.40;;;;;;5079632;28;20471;-71
2021/09/01 00:34:25;;;;;;;58.60;3.10;;;11.30;67.10;;;;;;5079209;28;20483;-72
2021/09/01 00:36:54;;;;;;;60.20;4.07;;;11.40;67.90;;;;;;5078812;28;20490;-72
2021/09/01 00:39:21;;;;;;;58.33;3.00;;;11.40;69.00;;;;;;5078384;28;20490;-73
2021/09/01 00:41:48;;;;;;;59.47;3.77;;;11.40;70.80;;;;;;5078275;28;20533;-71
2021/09/01 00:44:20;;;;;;;58.20;2.77;;;11.50;71.80;;;;;;5078269;28;20540;-72
2021/09/01 00:46:48;;;;;;;58.20;2.60;;;11.50;72.60;;;;;;5078696;28;20455;-72
2021/09/01 00:49:15;;;;;;;58.37;2.77;;;11.60;72.80;;;;;;5079278;28;20542;-72
2021/09/01 00:51:43;;;;;;;58.23;2.70;;;11.60;73.20;;;;;;5079408;28;20483;-73
2021/09/01 00:54:14;;;;;;;58.27;2.73;;;11.60;73.70;;;;;;5079296;28;20530;-73
2021/09/01 00:56:43;;;;;;;58.27;2.60;;;11.60;74.00;;;;;;5079887;28;20503;-72
2021/09/01 00:59:14;;;;;;;58.27;2.77;;;11.60;74.10;;;;;;5079131;28;20451;-71
2021/09/01 01:01:41;;;;;;;58.07;2.63;;;11.60;74.20;;;;;;5080431;28;20451;-72
2021/09/01 01:04:07;;;;;;;58.07;2.97;;;11.60;74.30;;;;;;5079471;28;20562;-72
2021/09/01 01:06:34;;;;;;;58.17;3.30;;;11.60;74.20;;;;;;5078232;28;20485;-73
2021/09/01 01:09:02;;;;;;;58.27;2.90;;;11.60;74.40;;;;;;5078505;28;20918;-72
2021/09/01 01:11:30;;;;;;;59.00;4.10;;;11.70;74.80;;;;;;5078643;28;20483;-71
2021/09/01 01:13:57;;;;;;;58.30;2.90;;;11.70;75.30;;;;;;5078719;28;20608;-73
2021/09/01 01:16:25;;;;;;;58.13;2.77;;;11.60;75.00;;;;;;5078680;28;20454;-72
2021/09/01 01:18:52;;;;;;;58.33;3.07;;;11.60;74.40;;;;;;5077704;28;20584;-72
2021/09/01 01:21:21;;;;;;;58.30;3.07;;;11.50;74.10;;;;;;5077935;28;20467;-72
2021/09/01 01:23:48;;;;;;;58.30;3.00;;;11.50;74.30;;;;;;5077866;28;20499;-72
2021/09/01 01:26:16;;;;;;;58.40;3.13;;;11.40;75.10;;;;;;5078239;28;20475;-72
2021/09/01 01:28:43;;;;;;;58.10;2.80;;;11.40;76.20;;;;;;5078674;28;20905;-72
2021/09/01 01:31:10;;;;;;;58.50;2.83;;;11.30;76.50;;;;;;5078681;28;20538;-73
2021/09/01 01:33:37;;;;;;;58.23;2.70;;;11.30;77.20;;;;;;5078966;28;20506;-72
2021/09/01 01:36:04;;;;;;;58.27;2.93;;;11.20;78.30;;;;;;5078142;28;20523;-72
2021/09/01 01:38:31;;;;;;;58.23;3.20;;;11.20;78.80;;;;;;5079431;28;20474;-71
2021/09/01 01:40:58;;;;;;;58.13;3.00;;;11.20;79.20;;;;;;5078482;28;20451;-72
2021/09/01 01:43:28;;;;;;;58.20;2.60;;;11.10;79.40;;;;;;5080051;28;20531;-72
2021/09/01 01:45:55;;;;;;;58.27;3.10;;;11.10;80.30;;;;;;5079508;28;20455;-72
2021/09/01 01:48:22;;;;;;;58.37;2.60;;;11.00;81.30;;;;;;5079607;28;20570;-72
2021/09/01 01:50:48;;;;;;;58.17;2.80;;;11.00;83.00;;;;;;5079492;28;20998;-72
2021/09/01 01:53:15;;;;;;;58.47;2.97;;;10.90;85.10;;;;;;5077228;28;20912;-72
2021/09/01 01:55:42;;;;;;;58.13;2.80;;;10.90;87.10;;;;;;5079437;28;20997;-71
2021/09/01 01:58:09;;;;;;;58.33;2.90;;;10.90;88.20;;;;;;5079180;28;20530;-72
2021/09/01 02:00:38;;;;;;;58.50;3.10;;;10.80;89.00;;;;;;5079785;28;20546;-71
2021/09/01 02:03:05;;;;;;;58.13;2.70;;;10.80;90.10;;;;;;5079293;28;20486;-72
2021/09/01 02:05:32;;;;;;;58.27;2.77;;;10.80;90.70;;;;;;5079416;28;20549;-72
2021/09/01 02:07:58;;;;;;;58.57;3.07;;;10.80;91.40;;;;;;5079940;28;20574;-71
2021/09/01 02:10:26;;;;;;;58.17;2.70;;;10.80;91.60;;;;;;5079997;28;20485;-72
2021/09/01 02:12:53;;;;;;;58.27;2.77;;;10.70;91.80;;;;;;5080391;28;20502;-71
2021/09/01 02:15:20;;;;;;;59.83;3.13;;;10.80;92.00;;;;;;5080422;28;20503;-72
2021/09/01 02:17:48;;;;;;;60.10;3.10;;;10.70;92.20;;;;;;5079133;28;20539;-71
2021/09/01 02:20:16;;;;;;;58.27;2.80;;;10.70;92.50;;;;;;5079617;28;20485;-71
2021/09/01 02:22:44;;;;;;;58.37;2.70;;;10.80;92.70;;;;;;5080398;28;20558;-71
2021/09/01 02:25:13;;;;;;;58.10;2.67;;;10.80;93.00;;;;;;5079197;28;20479;-71
2021/09/01 02:27:40;;;;;;;57.97;2.77;;;10.90;93.70;;;;;;5077830;28;20475;-71
2021/09/01 02:30:09;;;;;;;58.17;2.90;;;10.90;94.20;;;;;;5078144;28;20457;-72
2021/09/01 02:32:36;;;;;;;58.37;3.10;;;11.00;94.60;;;;;;5077122;28;20971;-72
2021/09/01 02:35:05;;;;;;;58.30;3.10;;;11.10;95.00;;;;;;5078899;28;20470;-72
2021/09/01 02:37:32;;;;;;;58.77;3.10;;;11.10;95.50;;;;;;5081122;28;20474;-72
2021/09/01 02:39:59;;;;;;;58.27;2.70;;;11.10;95.80;;;;;;5080257;28;20483;-71
2021/09/01 02:42:26;;;;;;;58.27;2.90;;;11.10;95.90;;;;;;5080242;28;20491;-72
2021/09/01 02:44:53;;;;;;;58.73;3.00;;;11.00;96.00;;;;;;5080327;28;20490;-72
2021/09/01 02:47:20;;;;;;;58.17;2.87;;;11.00;95.90;;;;;;5081542;28;20523;-72
2021/09/01 02:49:47;;;;;;;58.47;3.00;;;;;;;;;;5083115;28;20505;-72
2021/09/01 02:52:15;;;;;;;58.23;2.70;;;10.90;95.90;;;;;;5084240;28;20473;-72
2021/09/01 02:54:42;;;;;;;58.20;2.90;;;10.90;95.90;;;;;;5084945;28;20534;-72
2021/09/01 02:57:08;;;;;;;58.17;2.67;;;10.90;96.30;;;;;;5084349;28;20475;-72
2021/09/01 02:59:35;;;;;;;58.17;2.80;;;11.00;96.40;;;;;;5084451;28;20534;-71
2021/09/01 03:02:02;;;;;;;58.80;3.97;;;11.00;96.60;;;;;;5083064;28;20526;-71
2021/09/01 03:04:29;;;;;;;64.80;3.00;;;11.10;97.00;;;;;;5083544;28;20461;-72
2021/09/01 03:06:56;;;;;;;58.17;2.77;;;11.10;97.20;;;;;;5082321;28;20485;-72
2021/09/01 03:09:24;;;;;;;58.30;2.80;;;11.20;97.60;;;;;;5082921;28;20570;-72
2021/09/01 03:11:51;;;;;;;58.20;2.73;;;11.30;97.80;;;;;;5083692;28;20457;-72
2021/09/01 03:14:19;;;;;;;60.17;3.10;;;11.30;98.10;;;;;;5083233;28;20450;-72
2021/09/01 03:16:46;;;;;;;57.97;2.93;;;11.30;98.30;;;;;;5083766;28;20523;-71
2021/09/01 03:19:12;;;;;;;58.30;3.00;;;11.40;98.60;;;;;;5083006;28;20447;-72
2021/09/01 03:21:39;;;;;;;58.13;2.70;;;11.40;98.90;;;;;;5084518;28;20442;-72
2021/09/01 03:24:06;;;;;;;58.17;2.83;;;11.40;98.90;;;;;;5084882;28;20482;-71
2021/09/01 03:26:35;;;;;;;58.17;3.03;;;11.40;99.10;;;;;;5083799;28;20542;-72
2021/09/01 03:29:01;;;;;;;58.10;3.00;;;11.50;99.30;;;;;;5084384;28;20536;-71
2021/09/01 03:31:28;;;;;;;58.30;3.27;;;11.50;99.50;;;;;;5084633;28;20535;-71
2021/09/01 03:33:55;;;;;;;58.43;2.97;;;11.50;99.70;;;;;;5084875;28;20502;-72
2021/09/01 03:36:22;;;;;;;58.20;2.90;;;11.60;99.90;;;;;;5084882;28;20538;-72
2021/09/01 03:38:49;;;;;;;58.23;3.00;;;11.60;99.90;;;;;;5084434;28;20471;-72
2021/09/01 03:41:16;;;;;;;58.13;2.80;;;11.60;99.90;;;;;;5083075;28;20458;-72
2021/09/01 03:43:44;;;;;;;58.17;2.80;;;11.50;99.90;;;;;;5083323;28;20491;-71
2021/09/01 03:46:11;;;;;;;58.10;2.60;;;11.50;99.90;;;;;;5082600;28;20512;-71
2021/09/01 03:48:38;;;;;;;58.17;2.80;;;11.50;99.90;;;;;;5083033;28;20898;-72
2021/09/01 03:51:04;;;;;;;58.30;2.80;;;11.50;99.90;;;;;;5083242;28;20831;-72
2021/09/01 03:53:31;;;;;;;58.00;2.50;;;11.50;99.80;;;;;;5082088;28;20550;-71
2021/09/01 03:55:58;;;;;;;58.20;2.73;;;11.50;99.80;;;;;;5082865;28;20486;-72
2021/09/01 03:58:25;;;;;;;58.27;2.63;;;11.50;99.70;;;;;;5082765;28;20475;-71
2021/09/01 04:00:53;;;;;;;58.13;2.80;;;11.60;99.50;;;;;;5081657;28;20959;-72
2021/09/01 04:03:20;;;;;;;58.07;2.80;;;11.60;99.10;;;;;;5082010;28;20479;-72
2021/09/01 04:05:47;;;;;;;58.33;3.00;;;11.50;98.80;;;;;;5080951;28;20700;-72
2021/09/01 04:08:14;;;;;;;58.17;2.70;;;11.50;98.30;;;;;;5082174;28;20483;-71
2021/09/01 04:10:40;;;;;;;58.17;2.77;;;11.50;98.10;;;;;;5082263;28;20998;-72
2021/09/01 04:13:07;;;;;;;58.47;2.83;;;11.60;97.90;;;;;;5082067;28;20495;-71
2021/09/01 04:15:34;;;;;;;58.13;3.10;;;11.60;97.40;;;;;;5082986;28;20447;-72
2021/09/01 04:18:02;;;;;;;58.17;2.70;;;11.60;96.90;;;;;;5081807;28;20490;-72
2021/09/01 04:20:29;;;;;;;58.07;2.50;;;11.60;96.40;;;;;;5081829;28;20455;-72
2021/09/01 04:22:56;;;;;;;58.13;2.90;;;11.60;96.00;;;;;;5081479;28;20559;-72
2021/09/01 04:25:23;;;;;;;58.17;2.90;;;11.60;95.70;;;;;;5082297;28;20487;-72
2021/09/01 04:27:50;;;;;;;58.23;2.93;;;11.60;95.20;;;;;;5082054;28;20443;-71
2021/09/01 04:30:17;;;;;;;58.37;2.60;;;11.60;94.40;;;;;;5082249;28;20443;-72
2021/09/01 04:32:43;;;;;;;58.07;2.67;;;11.60;94.10;;;;;;5082197;28;20539;-72
2021/09/01 04:35:12;;;;;;;58.07;2.53;;;11.60;94.00;;;;;;5082436;28;20502;-72
2021/09/01 04:37:39;;;;;;;58.13;2.60;;;11.60;93.80;;;;;;5082437;28;20475;-71
2021/09/01 04:40:07;;;;;;;58.23;2.60;;;11.60;93.80;;;;;;5081944;28;20502;-72
2021/09/01 04:42:34;;;;;;;58.10;2.70;;;11.60;93.50;;;;;;5083109;28;20554;-72
2021/09/01 04:45:00;;;;;;;59.83;3.67;;;11.70;93.40;;;;;;5082850;28;20546;-71
2021/09/01 04:47:27;;;;;;;57.97;2.50;;;11.70;93.00;;;;;;5081866;28;20478;-72
2021/09/01 04:49:54;;;;;;;58.03;2.63;;;11.70;92.60;;;;;;5082587;28;20559;-72
2021/09/01 04:52:22;;;;;;;57.93;2.50;;;11.70;92.40;;;;;;5082937;28;20503;-71
2021/09/01 04:54:49;;;;;;;58.27;2.87;;;11.70;92.30;;;;;;5082556;28;20457;-71
2021/09/01 04:57:16;;;;;;;58.30;2.50;;;11.70;92.00;;;;;;5081850;28;20519;-72
2021/09/01 04:59:43;;;;;;;58.37;2.60;;;11.70;91.90;;;;;;5080583;28;20443;-72
2021/09/01 05:02:10;;;;;;;57.97;2.70;;;11.70;92.00;;;;;;5082090;28;20892;-71
2021/09/01 05:04:37;;;;;;;58.50;2.90;;;11.70;91.90;;;;;;5081660;28;20486;-71
2021/09/01 05:07:04;;;;;;;58.23;2.47;;;11.70;91.90;;;;;;5082097;28;20490;-72
2021/09/01 05:09:32;;;;;;;57.97;2.60;;;11.80;91.90;;;;;;5081249;28;20515;-71
2021/09/01 05:11:59;;;;;;;58.17;2.70;;;11.80;92.00;;;;;;5080602;28;20543;-72
2021/09/01 05:14:26;;;;;;;58.07;2.50;;;11.80;91.90;;;;;;5080725;28;20502;-73
2021/09/01 05:16:53;;;;;;;57.87;2.60;;;11.90;92.00;;;;;;5081142;28;20535;-71
2021/09/01 05:19:20;;;;;;;58.07;2.60;;;11.90;92.00;;;;;;5080835;28;20495;-72
2021/09/01 05:21:51;;;;;;;57.97;2.63;;;11.90;92.00;;;;;;5080977;28;20514;-73
2021/09/01 05:24:28;;;;;;;57.97;2.60;;;11.90;92.10;;;;;;5081361;28;20458;-72
2021/09/01 05:27:00;;;;;;;57.97;2.80;;;12.00;92.10;;;;;;5081432;28;20447;-72
2021/09/01 05:29:28;;;;;;;58.80;3.23;;;12.00;92.10;;;;;;5080865;28;20503;-73
2021/09/01 05:31:58;;;;;;;58.00;2.50;;;11.90;92.00;;;;;;5081503;28;20443;-73
2021/09/01 05:34:26;;;;;;;58.07;2.90;;;12.00;92.20;;;;;;5081347;28;20530;-73
2021/09/01 05:36:53;;;;;;;58.17;2.60;;;12.00;92.20;;;;;;5080862;28;20443;-73
2021/09/01 05:39:20;;;;;;;57.97;2.60;;;12.00;92.30;;;;;;5081084;28;20454;-72
2021/09/01 05:41:48;;;;;;;58.20;2.80;;;12.10;92.50;;;;;;5080855;28;20663;-73
2021/09/01 05:44:16;;;;;;;58.17;2.67;;;12.20;92.70;;;;;;5081122;28;20519;-72
2021/09/01 05:46:43;;;;;;;58.07;2.60;;;12.20;92.60;;;;;;5081111;28;20542;-73
2021/09/01 05:49:12;;;;;;;58.03;2.60;;;12.20;92.60;;;;;;5080479;28;20946;-72
2021/09/01 05:51:40;;;;;;;57.97;2.60;;;12.30;92.60;;;;;;5081083;28;20478;-72
2021/09/01 05:54:07;;;;;;;57.97;2.70;;;12.30;92.80;;;;;;5081904;28;20843;-72
2021/09/01 05:56:36;;;;;;;58.03;2.53;;;12.30;92.80;;;;;;5081425;28;20474;-72
2021/09/01 05:59:08;;;;;;;57.83;2.70;;;12.30;92.80;;;;;;5081239;28;20470;-70
2021/09/01 06:01:41;;;;;;;58.17;2.50;;;12.30;93.10;;;;;;5081109;28;20447;-73
2021/09/01 06:04:09;;;;;;;58.17;2.60;;;12.40;93.40;;;;;;5080733;28;20995;-72
2021/09/01 06:06:38;;;;;;;58.37;2.90;;;12.40;93.50;;;;;;5079988;28;20882;-71
2021/09/01 06:09:08;;;;;;;58.10;2.70;;;12.40;93.50;;;;;;5079901;28;20999;-72
2021/09/01 06:11:36;;;;;;;58.07;2.90;;;12.40;93.50;;;;;;5081363;28;20451;-72
2021/09/01 06:14:03;;;;;;;57.97;2.57;;;12.40;93.10;;;;;;5080313;28;20472;-72
2021/09/01 06:16:30;;;;;;;58.03;2.60;;;12.30;92.40;;;;;;5081386;28;20443;-73
2021/09/01 06:18:58;;;;;;;58.13;3.10;;;12.20;91.80;;;;;;5080682;28;20894;-72
2021/09/01 06:21:26;;;;;;;58.03;2.70;;;12.20;91.60;;;;;;5080592;28;20471;-72
2021/09/01 06:23:54;;;;;;;58.37;3.20;;;12.20;91.70;;;;;;5081021;28;20554;-71
2021/09/01 06:26:22;;;;;;;57.73;2.70;;;12.20;92.20;;;;;;5080860;28;20823;-72
2021/09/01 06:28:48;;;;;;;58.17;2.60;;;12.30;92.80;;;;;;5079790;28;20515;-73
2021/09/01 06:31:15;;;;;;;58.13;2.70;;;12.40;93.40;;;;;;5080000;28;20478;-72
2021/09/01 06:33:42;;;;;;;58.17;2.90;;;12.50;93.70;;;;;;5079875;28;20490;-73
2021/09/01 06:36:10;;;;;;;59.67;3.73;;;12.50;93.80;;;;;;5079947;28;20477;-72
2021/09/01 06:38:38;;;;;;;58.07;3.10;;;12.50;93.70;;;;;;5079279;28;21002;-71
2021/09/01 06:41:05;;;;;;;58.10;2.70;;;12.50;93.40;;;;;;5080164;28;20523;-72
2021/09/01 06:43:32;;;;;;;58.07;2.60;;;12.50;92.60;;;;;;5079569;28;20454;-72
2021/09/01 06:45:59;;;;;;;58.00;2.60;;;12.40;91.20;;;;;;5079564;28;20966;-72
2021/09/01 06:48:26;;;;;;;58.70;2.80;;;12.40;90.50;;;;;;5079329;28;20526;-72
2021/09/01 06:50:52;;;;;;;57.67;2.63;;;12.40;90.20;;;;;;5077890;28;20479;-72
2021/09/01 06:53:21;;;;;;;58.07;2.57;;;12.40;90.70;;;;;;5079232;28;20483;-75
2021/09/01 06:55:48;;;;;;;58.00;2.60;;;12.60;91.30;;;;;;5079765;28;20534;-72
2021/09/01 06:58:16;;;;;;;57.97;2.60;;;12.60;91.40;;;;;;5078722;28;20457;-73
2021/09/01 07:00:43;;;;;;;57.73;2.60;;;12.70;91.40;;;;;;5078643;28;20447;-73
2021/09/01 07:03:10;;;;;;;57.97;2.60;;;12.70;91.30;;;;;;5079236;28;20504;-72
2021/09/01 07:05:37;;;;;;;57.97;3.07;;;12.80;91.10;;;;;;5078663;28;20479;-74
2021/09/01 07:08:11;;;;;;;58.10;2.80;;;12.80;90.50;;;;;;5078482;28;20899;-74
2021/09/01 07:10:40;;;;;;;58.50;3.13;;;12.80;90.30;;;;;;5078513;28;20581;-73
2021/09/01 07:13:07;;;;;;;57.97;2.77;;;13.00;90.70;;;;;;5078359;28;20506;-73
2021/09/01 07:15:34;;;;;;;57.77;2.80;;;13.10;91.00;;;;;;5078062;28;21036;-74
2021/09/01 07:18:01;;;;;;;57.83;2.53;;;13.20;90.80;;;;;;5079115;28;20854;-74
2021/09/01 07:20:28;;;;;;;58.50;3.17;;;13.30;90.60;;;;;;5078619;28;20522;-73
2021/09/01 07:22:55;;;;;;;59.37;3.33;;;13.40;90.40;;;;;;5081897;28;20550;-73
2021/09/01 07:25:22;;;;;;;58.20;3.53;;;13.60;90.10;;;;;;5082004;28;20546;-73
2021/09/01 07:27:50;;;;;;;57.97;2.70;;;13.70;86.50;;;;;;5081438;28;20455;-73
2021/09/01 07:30:17;;;;;;;58.07;2.60;;;13.70;80.60;;;;;;5081233;28;20546;-73
2021/09/01 07:32:44;;;;;;;58.60;3.20;;;13.80;78.40;;;;;;5080797;28;20541;-73
2021/09/01 07:35:12;;;;;;;58.07;2.97;;;13.70;70.20;;;;;;5079735;28;20538;-74
2021/09/01 07:37:45;;;;;;;58.07;2.90;;;13.70;65.30;;;;;;5079018;28;20458;-72
2021/09/01 07:40:14;;;;;;;58.37;3.37;;;13.70;63.70;;;;;;5079775;28;20483;-73
2021/09/01 07:42:43;;;;;;;58.20;3.00;;;13.90;59.10;;;;;;5079195;28;20506;-72
2021/09/01 07:45:12;;;;;;;58.00;2.60;;;14.00;60.00;;;;;;5079111;28;20504;-73
2021/09/01 07:47:46;;;;;;;58.07;2.70;;;14.10;58.80;;;;;;5078884;28;20478;-72
2021/09/01 07:50:13;;;;;;;58.57;3.20;;;14.20;54.90;;;;;;5079200;28;20570;-72
2021/09/01 07:52:40;;;;;;;58.07;2.50;;;14.20;45.40;;;;;;5078840;28;20557;-73
2021/09/01 07:55:08;;;;;;;58.17;2.77;;;14.20;22.20;;;;;;5078180;28;20907;-72
2021/09/01 07:57:35;;;;;;;59.07;2.90;;;14.10;13.70;;;;;;5077940;28;20962;-73
2021/09/01 08:00:01;;;;;;;58.40;3.10;;;14.20;14.00;;;;;;5077283;28;20450;-73
2021/09/01 08:02:30;;;;;;;58.07;2.77;;;14.20;16.60;;;;;;5078100;28;20530;-73
2021/09/01 08:04:57;;;;;;;58.37;2.93;;;14.50;20.20;;;;;;5077875;28;20544;-73
2021/09/01 08:07:23;;;;;;;58.03;2.80;;;14.60;17.10;;;;;;5077766;28;20531;-72
2021/09/01 08:09:50;;;;;;;57.97;2.57;;;14.70;14.00;;;;;;5077073;28;20559;-73
2021/09/01 08:12:17;;;;;;;58.30;2.80;;;14.70;4.80;;;;;;5078046;28;20496;-73
2021/09/01 08:14:44;;;;;;;58.37;2.77;;;14.80;1.00;;;;;;5077823;28;20534;-73
2021/09/01 08:17:13;;;;;;;58.27;3.00;;;14.90;1.00;;;;;;5077171;28;20530;-73
2021/09/01 08:19:41;;;;;;;57.97;2.70;;;14.90;1.00;;;;;;5076932;28;20531;-70
2021/09/01 08:22:08;;;;;;;58.50;3.30;;;15.10;1.00;;;;;;5076971;28;20551;-70
2021/09/01 08:24:37;;;;;;;58.20;3.37;;;15.20;1.00;;;;;;5077112;28;20444;-70
2021/09/01 08:27:05;;;;;;;58.43;3.27;;;15.40;1.00;;;;;;5077171;28;20460;-70
2021/09/01 08:29:31;;;;;;;59.37;3.47;;;15.40;1.00;;;;;;5076570;28;20926;-71
2021/09/01 08:31:58;;;;;;;58.30;3.00;;;15.50;1.00;;;;;;5077228;28;20441;-70
2021/09/01 08:34:25;;;;;;;57.87;2.70;;;15.60;1.00;;;;;;5078019;28;20528;-71
2021/09/01 08:36:54;;;;;;;58.10;2.50;;;15.80;1.00;;;;;;5077589;28;20541;-70
2021/09/01 08:39:21;;;;;;;58.17;2.80;;;16.10;1.00;;;;;;5077344;28;20531;-71
2021/09/01 08:41:48;;;;;;;58.60;2.90;;;16.30;1.00;;;;;;5077500;28;20548;-71
2021/09/01 08:44:15;;;;;;;57.87;2.90;;;16.30;1.00;;;;;;5078322;28;20879;-71
2021/09/01 08:46:44;;;;;;;58.10;3.10;;;16.40;1.00;;;;;;5078310;28;20548;-71
2021/09/01 08:49:13;;;;;;;58.37;3.00;;;16.40;1.00;;;;;;5077444;28;20561;-71
2021/09/01 08:51:41;;;;;;;59.17;3.63;;;16.30;1.00;;;;;;5078388;28;20550;-72
2021/09/01 08:54:09;;;;;;;58.43;3.10;;;16.30;1.00;;;;;;5079700;28;20449;-71
2021/09/01 08:56:36;;;;;;;58.47;3.30;;;16.20;1.00;;;;;;5077073;28;20452;-71
2021/09/01 08:59:03;;;;;;;57.97;3.10;;;16.20;1.00;;;;;;5076541;28;20445;-70
2021/09/01 09:01:43;;;;;;;58.47;3.40;;;16.10;1.00;;;;;;5076019;28;20438;-72
2021/09/01 09:04:17;;;;;;;58.40;3.07;;;16.10;1.00;;;;;;5075713;28;21043;-72
2021/09/01 09:06:48;;;;;;;58.00;2.77;;;16.00;1.00;;;;;;5077061;28;20449;-72
2021/09/01 09:09:18;;;;;;;59.23;3.67;;;16.00;1.00;;;;;;5077606;28;20448;-72
2021/09/01 09:11:45;;;;;;;58.17;3.17;;;16.10;1.00;;;;;;5079027;28;20470;-72
2021/09/01 09:14:23;;;;;;;57.87;2.90;;;16.10;1.00;;;;;;5080034;28;20541;-71
2021/09/01 09:17:11;;;;;;;59.00;3.00;;;16.20;1.00;;;;;;5080691;28;20536;-72
2021/09/01 09:19:50;;;;;;;58.70;3.47;;;16.10;1.00;;;;;;5079617;28;20480;-72
2021/09/01 09:22:25;;;;;;;58.27;3.10;;;16.20;1.00;;;;;;5080221;28;20474;-71
2021/09/01 09:25:23;;;;;;;57.67;2.67;;;16.40;1.00;;;;;;5078950;28;20765;-71
2021/09/01 09:27:52;;;;;;;59.10;2.97;;;16.60;1.00;;;;;;5045635;28;20501;-71
2021/09/01 09:30:36;;;;;;;57.83;2.70;;;16.80;1.00;;;;;;5078413;28;20556;-72
2021/09/01 09:33:06;;;;;;;58.50;3.20;;;17.10;1.00;;;;;;5076006;28;20469;-72
2021/09/01 09:35:51;;;;;;;57.70;2.80;;;17.40;1.00;;;;;;5076114;28;20483;-72
2021/09/01 09:38:27;;;;;;;58.20;3.40;;;17.60;1.00;;;;;;5077846;28;20451;-72
2021/09/01 09:40:55;;;;;;;58.77;3.60;;;17.80;1.00;;;;;;5076687;28;20537;-72
2021/09/01 09:43:24;;;;;;;58.47;3.63;;;18.00;1.00;;;;;;5076565;28;20489;-72
2021/09/01 09:46:06;;;;;;;58.07;2.60;;;18.20;1.00;;;;;;5075419;28;21036;-73
2021/09/01 09:48:35;;;;;;;57.97;3.00;;;18.60;1.00;;;;;;5075740;28;20452;-72
2021/09/01 09:51:05;;;;;;;58.97;3.20;;;18.90;1.00;;;;;;5075213;28;20490;-71
2021/09/01 09:53:35;;;;;;;58.43;2.83;;;19.10;1.00;;;;;;5075686;28;20493;-71
2021/09/01 09:56:15;;;;;;;58.37;3.47;;;19.40;1.00;;;;;;5076103;28;20893;-72
2021/09/01 09:58:43;;;;;;;58.27;2.80;;;19.60;1.00;;;;;;5078104;28;20451;-72
2021/09/01 10:01:11;;;;;;;59.43;2.60;;;19.90;1.00;;;;;;5076730;28;20488;-72
2021/09/01 10:03:39;;;;;;;59.27;3.50;;;20.50;1.00;;;;;;5074861;28;20575;-73
2021/09/01 10:06:07;;;;;;;58.80;3.40;;;22.00;1.00;;;;;;5076241;28;20459;-72
2021/09/01 10:08:36;;;;;;;58.47;2.90;;;23.80;1.00;;;;;;5075658;28;20479;-72
2021/09/01 10:11:06;;;;;;;58.47;2.97;;;25.40;1.00;;;;;;5076185;28;20903;-72
2021/09/01 10:13:34;;;;;;;58.27;2.87;;;26.70;1.00;;;;;;5075543;28;20900;-72
2021/09/01 10:16:07;;;;;;;58.70;3.20;;;27.70;1.00;;;;;;5075366;28;20531;-72
2021/09/01 10:18:36;;;;;;;58.17;3.10;;;28.80;1.00;;;;;;5074790;28;20511;-72
2021/09/01 10:21:04;;;;;;;57.97;2.77;;;29.70;1.00;;;;;;5074273;28;20483;-72
2021/09/01 10:23:39;;;;;;;58.30;2.80;;;30.40;1.00;;;;;;5073090;28;20613;-73
2021/09/01 10:26:24;;;;;;;59.07;3.10;;;31.00;1.00;;;;;;5072720;28;20449;-72
2021/09/01 10:28:50;;;;;;;58.00;3.00;;;31.30;1.00;;;;;;5074495;28;20516;-70
2021/09/01 10:31:22;;;;;;;57.90;2.50;;;31.70;1.00;;;;;;5073252;28;20486;-70
2021/09/01 10:33:51;;;;;;;59.20;2.80;;;31.70;1.00;;;;;;5072309;28;20550;-70
2021/09/01 10:36:46;;;;;;;58.00;2.80;;;31.10;1.00;;;;;;5074260;28;20475;-70
2021/09/01 10:39:38;;;;;;;58.07;3.03;;;30.20;1.00;;;;;;5076175;28;20494;-73
2021/09/01 10:42:41;;;;;;;57.80;3.00;;;29.80;1.00;;;;;;5075141;28;20468;-73
2021/09/01 10:45:14;;;;;;;57.57;2.33;;;30.30;1.00;;;;;;5074160;28;20439;-70
2021/09/01 10:48:15;;;;;;;58.50;2.70;;;31.30;1.00;;;;;;5075165;28;20447;-71
2021/09/01 10:50:45;;;;;;;57.90;2.53;;;31.80;1.00;;;;;;5073437;28;20479;-70
2021/09/01 10:53:19;;;;;;;57.60;2.50;;;31.50;1.00;;;;;;5073046;28;20479;-72
2021/09/01 10:56:04;;;;;;;58.50;3.50;;;30.40;1.00;;;;;;5074604;28;20454;-71
2021/09/01 10:58:34;;;;;;;58.57;2.70;;;29.20;1.00;;;;;;5077282;28;20495;-71
2021/09/01 11:01:07;;;;;;;58.07;2.77;;;27.90;1.00;;;;;;5078785;28;20809;-71
2021/09/01 11:03:37;;;;;;;58.57;3.47;;;26.90;1.00;;;;;;5080112;28;20543;-71
2021/09/01 11:06:22;;;;;;;58.80;3.00;;;26.80;1.00;;;;;;5079765;28;20458;-71
2021/09/01 11:09:06;;;;;;;57.97;2.40;;;28.10;1.00;;;;;;5078133;28;20833;-71
2021/09/01 11:11:47;;;;;;;58.30;3.10;;;29.70;1.00;;;;;;5076147;28;20490;-71
2021/09/01 11:14:31;;;;;;;58.27;2.70;;;30.60;1.00;;;;;;5077482;28;20530;-70
2021/09/01 11:16:58;;;;;;;57.77;2.70;;;30.50;1.00;;;;;;5078671;28;20513;-72
2021/09/01 11:19:25;;;;;;;57.80;2.27;;;31.10;1.00;;;;;;5075572;28;20527;-72
2021/09/01 11:21:52;;;;;;;57.87;2.50;;;32.30;1.00;;;;;;5076987;28;20543;-71
2021/09/01 11:24:20;;;;;;;57.50;2.30;;;33.60;1.00;;;;;;5075210;28;20534;-71
2021/09/01 11:26:53;;;;;;;57.60;2.60;;;34.70;1.00;;;;;;5075084;28;20446;-71
2021/09/01 11:29:30;;;;;;;57.70;2.27;;;35.60;1.00;;;;;;5075084;28;20876;-71
2021/09/01 11:31:56;;;;;;;57.70;2.53;;;36.60;1.00;;;;;;5075657;28;20479;-71
2021/09/01 11:34:23;;;;;;;57.20;2.67;;;36.70;1.00;;;;;;5075005;28;20477;-71
2021/09/01 11:36:50;;;;;;;57.23;2.33;;;36.40;1.00;;;;;;5075096;28;20444;-71
2021/09/01 11:39:18;;;;;;;57.60;2.57;;;36.80;1.00;;;;;;5074717;28;20841;-71
2021/09/01 11:41:47;;;;;;;57.20;2.70;;;37.30;1.00;;;;;;5074969;28;20446;-71
2021/09/01 11:44:14;;;;;;;57.13;2.70;;;37.70;1.00;;;;;;5074833;28;20455;-71
2021/09/01 11:46:43;;;;;;;57.60;2.60;;;38.20;1.00;;;;;;5074433;28;20542;-71
2021/09/01 11:49:11;;;;;;;57.13;2.37;;;38.20;1.00;;;;;;5074780;28;20518;-71
2021/09/01 11:51:40;;;;;;;57.07;2.40;;;38.20;1.00;;;;;;5074744;28;20569;-71
2021/09/01 11:54:08;;;;;;;57.20;2.70;;;38.50;1.00;;;;;;5074360;28;21034;-71
2021/09/01 11:56:35;;;;;;;57.20;2.87;;;;;;;;;;5074450;28;20627;-71
2021/09/01 11:59:04;;;;;;;56.97;2.23;;;39.30;1.00;;;;;;5074123;28;20449;-71
2021/09/01 12:01:33;;;;;;;56.90;2.30;;;39.30;1.00;;;;;;5074331;28;20435;-71
2021/09/01 12:04:01;;;;;;;57.20;2.17;;;39.20;1.00;;;;;;5074594;28;20507;-70
2021/09/01 12:06:36;;;;;;;56.93;2.20;;;39.00;1.00;;;;;;5074671;28;20447;-71
2021/09/01 12:09:04;;;;;;;57.10;2.60;;;39.00;1.00;;;;;;5073743;28;20482;-70
2021/09/01 12:11:31;;;;;;;57.00;2.47;;;39.20;1.00;;;;;;5074371;28;20491;-71
2021/09/01 12:14:03;;;;;;;57.20;2.90;;;38.80;1.00;;;;;;5074874;28;20467;-71
2021/09/01 12:16:32;;;;;;;58.23;2.70;;;37.60;1.00;;;;;;5074987;28;20448;-71
2021/09/01 12:19:04;;;;;;;57.27;2.37;;;35.80;1.00;;;;;;5075697;28;20447;-71
2021/09/01 12:21:58;;;;;;;58.30;2.97;;;33.90;1.00;;;;;;5075926;28;20447;-71
2021/09/01 12:24:27;;;;;;;57.97;2.33;;;32.70;1.00;;;;;;5040264;28;20459;-71
2021/09/01 12:26:57;;;;;;;57.17;1.90;;;33.00;1.00;;;;;;5076157;28;20486;-72
2021/09/01 12:29:38;;;;;;;56.87;1.80;;;34.00;1.00;;;;;;5075352;28;20501;-72
2021/09/01 12:32:08;;;;;;;57.40;2.60;;;35.10;1.00;;;;;;5075295;28;20497;-71
2021/09/01 12:34:38;;;;;;;57.40;2.50;;;35.60;1.00;;;;;;5074694;28;20479;-71
2021/09/01 12:37:12;;;;;;;59.20;2.80;;;35.70;1.00;;;;;;5074842;28;20940;-71
2021/09/01 12:39:47;;;;;;;57.37;2.60;;;36.20;1.00;;;;;;5074647;28;21012;-72
2021/09/01 12:42:22;;;;;;;57.30;2.40;;;36.50;1.00;;;;;;5073548;28;20808;-71
2021/09/01 12:44:50;;;;;;;57.17;2.53;;;37.20;1.00;;;;;;5073605;28;20442;-70
2021/09/01 12:47:17;;;;;;;57.37;2.33;;;36.70;1.00;;;;;;5074686;28;20444;-71
2021/09/01 12:49:47;;;;;;;57.40;2.73;;;35.20;1.00;;;;;;5075562;28;20960;-71